createdAt,value
2018-04-25T00:00:42.419Z,16.12
2018-04-25T00:01:42.433Z,16.12
2018-04-25T00:02:42.503Z,16.21
2018-04-25T00:03:42.472Z,16.12
2018-04-25T00:04:42.487Z,16.17
2018-04-25T00:05:42.507Z,16.11
2018-04-25T00:06:42.530Z,16.14
2018-04-25T00:07:42.550Z,16.12
2018-04-25T00:08:42.565Z,16.17
2018-04-25T00:09:42.583Z,16.12
2018-04-25T00:10:42.604Z,16.11
2018-04-25T00:11:42.615Z,16.11
2018-04-25T00:12:42.636Z,16.14
2018-04-25T00:13:42.652Z,16.14
2018-04-25T00:14:42.682Z,16.15
2018-04-25T00:15:42.690Z,16.09
2018-04-25T00:16:42.714Z,16.11
2018-04-25T00:17:42.733Z,16.11
2018-04-25T00:18:42.750Z,16.11
2018-04-25T00:19:42.769Z,16.08
2018-04-25T00:20:42.787Z,16.09
2018-04-25T00:21:42.807Z,16.07
2018-04-25T00:22:42.821Z,16.08
2018-04-25T00:23:42.842Z,16.09
2018-04-25T00:24:42.856Z,16.07
2018-04-25T00:25:42.878Z,16.05
2018-04-25T00:26:42.892Z,16.14
2018-04-25T00:27:42.920Z,16.11
2018-04-25T00:28:42.931Z,16.07
2018-04-25T00:29:43.019Z,16.11
2018-04-25T00:30:42.995Z,16.05
2018-04-25T00:31:42.990Z,16.08
2018-04-25T00:32:43.009Z,16.05
2018-04-25T00:33:43.021Z,16.05
2018-04-25T00:34:43.037Z,16.07
2018-04-25T00:35:43.062Z,16.00
2018-04-25T00:36:43.074Z,16.04
2018-04-25T00:37:43.096Z,15.97
2018-04-25T00:38:43.117Z,16.02
2018-04-25T00:39:43.132Z,15.94
2018-04-25T00:40:43.153Z,15.97
2018-04-25T00:41:43.235Z,16.00
2018-04-25T00:42:43.190Z,15.97
2018-04-25T00:43:43.208Z,15.97
2018-04-25T00:44:43.227Z,15.96
2018-04-25T00:45:43.340Z,15.97
2018-04-25T00:46:43.268Z,15.89
2018-04-25T00:47:43.334Z,16.01
2018-04-25T00:48:43.298Z,15.97
2018-04-25T00:49:43.318Z,15.94
2018-04-25T00:50:43.333Z,15.86
2018-04-25T00:51:43.355Z,15.89
2018-04-25T00:52:43.368Z,15.92
2018-04-25T00:53:43.448Z,15.84
2018-04-25T00:54:43.407Z,15.89
2018-04-25T00:55:43.427Z,15.84
2018-04-25T00:56:43.447Z,15.76
2018-04-25T00:57:43.462Z,15.84
2018-04-25T00:58:43.475Z,15.86
2018-04-25T00:59:43.495Z,15.84
2018-04-25T01:00:43.515Z,15.75
2018-04-25T01:01:43.543Z,15.82
2018-04-25T01:02:43.599Z,15.76
2018-04-25T01:03:43.572Z,15.74
2018-04-25T01:04:43.593Z,15.75
2018-04-25T01:05:43.607Z,15.71
2018-04-25T01:06:43.627Z,15.71
2018-04-25T01:07:43.645Z,15.71
2018-04-25T01:08:43.709Z,15.75
2018-04-25T01:09:43.679Z,15.74
2018-04-25T01:10:43.693Z,15.71
2018-04-25T01:11:43.743Z,15.67
2018-04-25T01:12:43.735Z,15.62
2018-04-25T01:13:43.747Z,15.67
2018-04-25T01:14:43.822Z,15.69
2018-04-25T01:15:43.795Z,15.69
2018-04-25T01:16:43.807Z,15.57
2018-04-25T01:17:43.827Z,15.68
2018-04-25T01:18:43.838Z,15.59
2018-04-25T01:19:43.858Z,15.57
2018-04-25T01:20:43.888Z,15.67
2018-04-25T01:21:43.897Z,15.62
2018-04-25T01:22:43.941Z,15.68
2018-04-25T01:23:43.939Z,15.62
2018-04-25T01:24:43.956Z,15.57
2018-04-25T01:25:43.973Z,15.60
2018-04-25T01:26:44.036Z,15.54
2018-04-25T01:27:44.005Z,15.59
2018-04-25T01:28:44.057Z,15.59
2018-04-25T01:29:44.040Z,15.65
2018-04-25T01:30:44.058Z,15.62
2018-04-25T01:31:44.079Z,15.62
2018-04-25T01:32:44.149Z,15.59
2018-04-25T01:33:44.116Z,15.57
2018-04-25T01:34:44.220Z,15.60
2018-04-25T01:35:44.149Z,15.67
2018-04-25T01:36:44.165Z,15.68
2018-04-25T01:37:44.185Z,15.64
2018-04-25T01:38:44.257Z,15.64
2018-04-25T01:39:44.226Z,15.60
2018-04-25T01:40:44.241Z,15.64
2018-04-25T01:41:44.262Z,15.62
2018-04-25T01:42:44.275Z,15.54
2018-04-25T01:43:44.297Z,15.60
2018-04-25T01:44:44.318Z,15.57
2018-04-25T01:45:44.333Z,15.53
2018-04-25T01:46:44.346Z,15.59
2018-04-25T01:47:44.368Z,15.59
2018-04-25T01:48:44.386Z,15.64
2018-04-25T01:49:44.414Z,15.56
2018-04-25T01:50:44.420Z,15.57
2018-04-25T01:51:44.439Z,15.59
2018-04-25T01:52:44.458Z,15.59
2018-04-25T01:53:44.475Z,15.57
2018-04-25T01:54:44.492Z,15.64
2018-04-25T01:55:44.514Z,15.62
2018-04-25T01:56:44.586Z,15.62
2018-04-25T01:57:44.552Z,15.64
2018-04-25T01:58:44.567Z,15.64
2018-04-25T01:59:44.589Z,15.68
2018-04-25T02:00:44.599Z,15.65
2018-04-25T02:01:44.620Z,15.60
2018-04-25T02:02:44.638Z,15.59
2018-04-25T02:03:44.657Z,15.60
2018-04-25T02:04:44.677Z,15.56
2018-04-25T02:05:44.695Z,15.51
2018-04-25T02:06:44.715Z,15.53
2018-04-25T02:07:44.725Z,15.54
2018-04-25T02:08:44.754Z,15.53
2018-04-25T02:09:44.769Z,15.47
2018-04-25T02:10:44.782Z,15.46
2018-04-25T02:11:44.797Z,15.51
2018-04-25T02:12:44.818Z,15.49
2018-04-25T02:13:44.844Z,15.39
2018-04-25T02:14:44.902Z,15.41
2018-04-25T02:15:44.871Z,15.38
2018-04-25T02:16:44.895Z,15.38
2018-04-25T02:17:44.912Z,15.43
2018-04-25T02:18:44.929Z,15.46
2018-04-25T02:19:44.947Z,15.44
2018-04-25T02:20:45.010Z,15.38
2018-04-25T02:21:44.979Z,15.44
2018-04-25T02:22:45.003Z,15.41
2018-04-25T02:23:45.022Z,15.38
2018-04-25T02:24:45.036Z,15.34
2018-04-25T02:25:45.056Z,15.38
2018-04-25T02:26:45.071Z,15.43
2018-04-25T02:27:45.088Z,15.39
2018-04-25T02:28:45.105Z,15.34
2018-04-25T02:29:45.128Z,15.34
2018-04-25T02:30:45.141Z,15.38
2018-04-25T02:31:45.156Z,15.35
2018-04-25T02:32:45.184Z,15.41
2018-04-25T02:33:45.196Z,15.34
2018-04-25T02:34:45.211Z,15.34
2018-04-25T02:35:45.230Z,15.43
2018-04-25T02:36:45.254Z,15.41
2018-04-25T02:37:45.267Z,15.35
2018-04-25T02:38:45.284Z,15.41
2018-04-25T02:39:45.299Z,15.38
2018-04-25T02:40:45.321Z,15.41
2018-04-25T02:41:45.339Z,15.39
2018-04-25T02:42:45.365Z,15.38
2018-04-25T02:43:45.371Z,15.44
2018-04-25T02:44:45.445Z,15.36
2018-04-25T02:45:45.420Z,15.41
2018-04-25T02:46:45.463Z,15.38
2018-04-25T02:47:45.456Z,15.34
2018-04-25T02:48:45.466Z,15.38
2018-04-25T02:49:45.485Z,15.39
2018-04-25T02:50:45.550Z,15.38
2018-04-25T02:51:45.516Z,15.38
2018-04-25T02:52:45.582Z,15.39
2018-04-25T02:53:45.559Z,15.44
2018-04-25T02:54:45.577Z,15.39
2018-04-25T02:55:45.588Z,15.43
2018-04-25T02:56:45.618Z,15.56
2018-04-25T02:57:45.625Z,15.41
2018-04-25T02:58:45.754Z,15.41
2018-04-25T02:59:45.663Z,15.41
2018-04-25T03:00:45.684Z,15.43
2018-04-25T03:01:45.701Z,15.38
2018-04-25T03:02:45.763Z,15.36
2018-04-25T03:03:45.732Z,15.38
2018-04-25T03:04:45.758Z,15.38
2018-04-25T03:05:45.776Z,15.46
2018-04-25T03:06:45.800Z,15.41
2018-04-25T03:07:45.808Z,15.34
2018-04-25T03:08:45.873Z,15.32
2018-04-25T03:09:45.840Z,15.34
2018-04-25T03:10:45.869Z,15.32
2018-04-25T03:11:45.875Z,15.29
2018-04-25T03:12:45.904Z,15.29
2018-04-25T03:13:45.917Z,15.28
2018-04-25T03:14:45.988Z,15.23
2018-04-25T03:15:45.952Z,15.25
2018-04-25T03:16:46.054Z,15.29
2018-04-25T03:17:45.989Z,15.28
2018-04-25T03:18:46.006Z,15.21
2018-04-25T03:19:46.018Z,15.25
2018-04-25T03:20:46.093Z,15.31
2018-04-25T03:21:46.058Z,15.29
2018-04-25T03:22:46.072Z,15.27
2018-04-25T03:23:46.096Z,15.21
2018-04-25T03:24:46.117Z,15.16
2018-04-25T03:25:46.132Z,15.29
2018-04-25T03:26:46.194Z,15.27
2018-04-25T03:27:46.227Z,15.31
2018-04-25T03:28:46.183Z,15.25
2018-04-25T03:29:46.203Z,15.21
2018-04-25T03:30:46.216Z,15.27
2018-04-25T03:31:46.234Z,15.20
2018-04-25T03:32:46.250Z,15.25
2018-04-25T03:33:46.344Z,15.29
2018-04-25T03:34:46.288Z,15.29
2018-04-25T03:35:46.316Z,15.28
2018-04-25T03:36:46.329Z,15.31
2018-04-25T03:37:46.349Z,15.29
2018-04-25T03:38:46.361Z,15.23
2018-04-25T03:39:46.427Z,15.28
2018-04-25T03:40:46.397Z,15.27
2018-04-25T03:41:46.414Z,15.25
2018-04-25T03:42:46.432Z,15.29
2018-04-25T03:43:46.453Z,15.29
2018-04-25T03:44:46.475Z,15.36
2018-04-25T03:45:46.519Z,15.31
2018-04-25T03:46:46.506Z,15.38
2018-04-25T03:47:46.522Z,15.36
2018-04-25T03:48:46.539Z,15.29
2018-04-25T03:49:46.561Z,15.38
2018-04-25T03:50:46.575Z,15.28
2018-04-25T03:51:46.637Z,15.34
2018-04-25T03:52:46.613Z,15.34
2018-04-25T03:53:46.626Z,15.36
2018-04-25T03:54:46.652Z,15.32
2018-04-25T03:55:46.673Z,15.38
2018-04-25T03:56:46.740Z,15.36
2018-04-25T03:57:46.749Z,15.34
2018-04-25T03:58:46.728Z,15.34
2018-04-25T03:59:46.741Z,15.34
2018-04-25T04:00:46.758Z,15.31
2018-04-25T04:01:46.778Z,15.34
2018-04-25T04:02:46.797Z,15.25
2018-04-25T04:03:46.857Z,15.25
2018-04-25T04:04:46.831Z,15.25
2018-04-25T04:05:46.846Z,15.27
2018-04-25T04:06:46.862Z,15.23
2018-04-25T04:07:46.891Z,15.25
2018-04-25T04:08:46.955Z,15.25
2018-04-25T04:09:46.925Z,15.20
2018-04-25T04:10:46.937Z,15.21
2018-04-25T04:11:46.955Z,15.21
2018-04-25T04:12:46.984Z,15.27
2018-04-25T04:13:46.990Z,15.23
2018-04-25T04:14:47.021Z,15.25
2018-04-25T04:15:47.032Z,15.28
2018-04-25T04:16:47.049Z,15.13
2018-04-25T04:17:47.061Z,15.14
2018-04-25T04:18:47.081Z,15.13
2018-04-25T04:19:47.154Z,15.23
2018-04-25T04:20:47.121Z,15.20
2018-04-25T04:21:47.136Z,15.19
2018-04-25T04:22:47.151Z,15.21
2018-04-25T04:23:47.172Z,15.16
2018-04-25T04:24:47.194Z,15.14
2018-04-25T04:25:47.204Z,15.11
2018-04-25T04:26:47.229Z,15.13
2018-04-25T04:27:47.241Z,15.17
2018-04-25T04:28:47.272Z,15.14
2018-04-25T04:29:47.288Z,15.11
2018-04-25T04:30:47.301Z,15.16
2018-04-25T04:31:47.316Z,15.14
2018-04-25T04:32:47.336Z,15.16
2018-04-25T04:33:47.349Z,15.10
2018-04-25T04:34:47.368Z,15.11
2018-04-25T04:35:47.391Z,15.13
2018-04-25T04:36:47.406Z,15.11
2018-04-25T04:37:47.479Z,15.14
2018-04-25T04:38:47.439Z,15.13
2018-04-25T04:39:47.463Z,15.06
2018-04-25T04:40:47.475Z,15.10
2018-04-25T04:41:47.495Z,15.16
2018-04-25T04:42:47.509Z,15.06
2018-04-25T04:43:47.588Z,14.98
2018-04-25T04:44:47.552Z,15.14
2018-04-25T04:45:47.575Z,15.17
2018-04-25T04:46:47.580Z,15.17
2018-04-25T04:47:47.597Z,15.03
2018-04-25T04:48:47.623Z,15.16
2018-04-25T04:49:47.693Z,15.06
2018-04-25T04:50:47.656Z,15.06
2018-04-25T04:51:47.679Z,15.06
2018-04-25T04:52:47.695Z,15.01
2018-04-25T04:53:47.706Z,15.01
2018-04-25T04:54:47.723Z,15.06
2018-04-25T04:55:47.744Z,15.07
2018-04-25T04:56:47.763Z,15.06
2018-04-25T04:57:47.856Z,15.03
2018-04-25T04:58:47.796Z,15.03
2018-04-25T04:59:47.889Z,15.03
2018-04-25T05:00:47.837Z,14.98
2018-04-25T05:01:47.900Z,14.88
2018-04-25T05:02:47.870Z,15.02
2018-04-25T05:03:47.926Z,14.95
2018-04-25T05:04:47.908Z,14.89
2018-04-25T05:05:47.923Z,14.91
2018-04-25T05:06:47.944Z,14.91
2018-04-25T05:07:47.965Z,15.09
2018-04-25T05:08:47.981Z,14.89
2018-04-25T05:09:48.032Z,14.89
2018-04-25T05:10:48.016Z,14.92
2018-04-25T05:11:48.041Z,14.96
2018-04-25T05:12:48.053Z,14.95
2018-04-25T05:13:48.117Z,15.09
2018-04-25T05:14:48.081Z,15.02
2018-04-25T05:15:48.188Z,15.07
2018-04-25T05:16:48.125Z,15.09
2018-04-25T05:17:48.141Z,15.07
2018-04-25T05:18:48.154Z,15.16
2018-04-25T05:19:48.181Z,15.02
2018-04-25T05:20:48.193Z,14.98
2018-04-25T05:21:48.209Z,15.06
2018-04-25T05:22:48.230Z,15.01
2018-04-25T05:23:48.247Z,14.96
2018-04-25T05:24:48.263Z,14.91
2018-04-25T05:25:48.287Z,15.02
2018-04-25T05:26:48.305Z,15.01
2018-04-25T05:27:48.315Z,14.96
2018-04-25T05:28:48.335Z,14.99
2018-04-25T05:29:48.353Z,15.01
2018-04-25T05:30:48.372Z,15.03
2018-04-25T05:31:48.493Z,15.07
2018-04-25T05:32:48.412Z,15.06
2018-04-25T05:33:48.426Z,15.02
2018-04-25T05:34:48.441Z,15.09
2018-04-25T05:35:48.457Z,15.10
2018-04-25T05:36:48.475Z,14.96
2018-04-25T05:37:48.545Z,14.99
2018-04-25T05:38:48.583Z,15.07
2018-04-25T05:39:48.530Z,14.98
2018-04-25T05:40:48.549Z,15.02
2018-04-25T05:41:48.561Z,15.09
2018-04-25T05:42:48.646Z,14.99
2018-04-25T05:43:48.597Z,15.16
2018-04-25T05:44:48.669Z,15.02
2018-04-25T05:45:48.633Z,15.07
2018-04-25T05:46:48.650Z,15.19
2018-04-25T05:47:48.673Z,15.10
2018-04-25T05:48:48.741Z,15.11
2018-04-25T05:49:48.704Z,15.17
2018-04-25T05:50:48.727Z,15.16
2018-04-25T05:51:48.810Z,15.01
2018-04-25T05:52:48.754Z,15.02
2018-04-25T05:53:48.782Z,15.10
2018-04-25T05:54:48.841Z,15.10
2018-04-25T05:55:48.807Z,15.14
2018-04-25T05:56:48.829Z,15.11
2018-04-25T05:57:48.857Z,15.10
2018-04-25T05:58:48.864Z,15.16
2018-04-25T05:59:48.887Z,15.14
2018-04-25T06:00:48.950Z,15.10
2018-04-25T06:01:48.917Z,15.02
2018-04-25T06:02:48.932Z,15.16
2018-04-25T06:03:48.949Z,15.09
2018-04-25T06:04:48.971Z,15.03
2018-04-25T06:05:48.987Z,15.11
2018-04-25T06:06:49.059Z,15.10
2018-04-25T06:07:49.021Z,15.14
2018-04-25T06:08:49.117Z,15.16
2018-04-25T06:09:49.061Z,15.14
2018-04-25T06:10:49.073Z,15.17
2018-04-25T06:11:49.095Z,15.20
2018-04-25T06:12:49.161Z,15.25
2018-04-25T06:13:49.133Z,15.27
2018-04-25T06:14:49.216Z,15.28
2018-04-25T06:15:49.166Z,15.28
2018-04-25T06:16:49.185Z,15.27
2018-04-25T06:17:49.203Z,15.35
2018-04-25T06:18:49.276Z,15.35
2018-04-25T06:19:49.240Z,15.31
2018-04-25T06:20:49.252Z,15.28
2018-04-25T06:21:49.270Z,15.29
2018-04-25T06:22:49.293Z,15.38
2018-04-25T06:23:49.309Z,15.36
2018-04-25T06:24:49.376Z,15.39
2018-04-25T06:25:49.346Z,15.51
2018-04-25T06:26:49.366Z,15.50
2018-04-25T06:27:49.378Z,15.49
2018-04-25T06:28:49.395Z,15.57
2018-04-25T06:29:49.416Z,15.64
2018-04-25T06:30:49.488Z,15.57
2018-04-25T06:31:49.480Z,15.64
2018-04-25T06:32:49.473Z,15.60
2018-04-25T06:33:49.493Z,15.64
2018-04-25T06:34:49.507Z,15.62
2018-04-25T06:35:49.529Z,15.53
2018-04-25T06:36:49.596Z,15.65
2018-04-25T06:37:49.605Z,15.82
2018-04-25T06:38:49.579Z,15.84
2018-04-25T06:39:49.599Z,15.76
2018-04-25T06:40:49.616Z,15.75
2018-04-25T06:41:49.636Z,15.83
2018-04-25T06:42:49.705Z,15.96
2018-04-25T06:43:49.682Z,16.01
2018-04-25T06:44:49.717Z,15.97
2018-04-25T06:45:49.703Z,16.05
2018-04-25T06:46:49.721Z,16.01
2018-04-25T06:47:49.738Z,16.14
2018-04-25T06:48:49.809Z,16.12
2018-04-25T06:49:49.854Z,16.20
2018-04-25T06:50:49.790Z,16.14
2018-04-25T06:51:49.813Z,16.28
2018-04-25T06:52:49.832Z,16.27
2018-04-25T06:53:49.854Z,16.28
2018-04-25T06:54:49.875Z,16.42
2018-04-25T06:55:49.905Z,16.45
2018-04-25T06:56:50.051Z,16.39
2018-04-25T06:57:49.953Z,16.52
2018-04-25T06:58:49.942Z,16.70
2018-04-25T06:59:49.964Z,16.70
2018-04-25T07:00:50.029Z,16.75
2018-04-25T07:01:49.999Z,16.83
2018-04-25T07:02:50.017Z,16.82
2018-04-25T07:03:50.031Z,16.82
2018-04-25T07:04:50.054Z,16.97
2018-04-25T07:05:50.076Z,17.04
2018-04-25T07:06:50.142Z,17.12
2018-04-25T07:07:50.218Z,17.31
2018-04-25T07:08:50.130Z,17.44
2018-04-25T07:09:50.151Z,17.38
2018-04-25T07:10:50.165Z,17.49
2018-04-25T07:11:50.183Z,17.51
2018-04-25T07:12:50.250Z,17.74
2018-04-25T07:13:50.223Z,17.64
2018-04-25T07:14:50.241Z,17.72
2018-04-25T07:15:50.263Z,17.64
2018-04-25T07:16:50.281Z,17.72
2018-04-25T07:17:50.300Z,17.81
2018-04-25T07:18:50.369Z,17.89
2018-04-25T07:19:50.375Z,17.93
2018-04-25T07:20:50.354Z,17.92
2018-04-25T07:21:50.374Z,18.02
2018-04-25T07:22:50.387Z,18.18
2018-04-25T07:23:50.426Z,18.29
2018-04-25T07:24:50.486Z,18.30
2018-04-25T07:25:50.447Z,18.11
2018-04-25T07:26:50.471Z,18.29
2018-04-25T07:27:50.492Z,18.42
2018-04-25T07:28:50.510Z,18.58
2018-04-25T07:29:50.530Z,18.57
2018-04-25T07:30:50.616Z,18.69
2018-04-25T07:31:50.565Z,18.54
2018-04-25T07:32:50.590Z,18.58
2018-04-25T07:33:50.611Z,18.73
2018-04-25T07:34:50.625Z,18.82
2018-04-25T07:35:50.639Z,19.00
2018-04-25T07:36:50.713Z,19.08
2018-04-25T07:37:50.679Z,19.25
2018-04-25T07:38:50.701Z,19.23
2018-04-25T07:39:50.723Z,19.43
2018-04-25T07:40:50.738Z,19.32
2018-04-25T07:41:50.847Z,19.47
2018-04-25T07:42:50.836Z,19.68
2018-04-25T07:43:50.800Z,19.83
2018-04-25T07:44:50.824Z,19.71
2018-04-25T07:45:50.838Z,19.88
2018-04-25T07:46:50.856Z,19.88
2018-04-25T07:47:50.876Z,20.02
2018-04-25T07:48:50.949Z,20.06
2018-04-25T07:49:50.922Z,19.86
2018-04-25T07:50:50.939Z,19.66
2018-04-25T07:51:50.963Z,19.63
2018-04-25T07:52:50.988Z,19.61
2018-04-25T07:53:50.999Z,19.77
2018-04-25T07:54:51.072Z,19.74
2018-04-25T07:55:51.089Z,19.74
2018-04-25T07:56:51.060Z,20.11
2018-04-25T07:57:51.078Z,20.23
2018-04-25T07:58:51.104Z,20.43
2018-04-25T07:59:51.121Z,20.48
2018-04-25T08:00:51.188Z,20.35
2018-04-25T08:01:51.166Z,20.03
2018-04-25T08:02:51.181Z,20.29
2018-04-25T08:03:51.202Z,20.10
2018-04-25T08:04:51.225Z,20.17
2018-04-25T08:05:51.280Z,20.10
2018-04-25T08:06:51.313Z,19.87
2018-04-25T08:07:51.307Z,19.96
2018-04-25T08:08:51.313Z,20.41
2018-04-25T08:09:51.325Z,20.42
2018-04-25T08:10:51.348Z,20.59
2018-04-25T08:11:51.365Z,20.91
2018-04-25T08:12:51.391Z,20.87
2018-04-25T08:13:51.487Z,20.94
2018-04-25T08:14:51.434Z,20.84
2018-04-25T08:15:51.446Z,21.07
2018-04-25T08:16:51.473Z,21.10
2018-04-25T08:17:51.552Z,20.85
2018-04-25T08:18:51.566Z,21.13
2018-04-25T08:19:51.559Z,21.22
2018-04-25T08:20:51.556Z,21.19
2018-04-25T08:21:51.583Z,21.14
2018-04-25T08:22:51.594Z,21.09
2018-04-25T08:23:51.715Z,20.72
2018-04-25T08:24:51.687Z,20.84
2018-04-25T08:25:51.728Z,20.98
2018-04-25T08:26:51.682Z,21.13
2018-04-25T08:27:51.698Z,21.40
2018-04-25T08:28:51.723Z,21.59
2018-04-25T08:29:51.751Z,21.37
2018-04-25T08:30:51.813Z,21.38
2018-04-25T08:31:51.785Z,21.46
2018-04-25T08:32:51.806Z,21.62
2018-04-25T08:33:51.828Z,22.07
2018-04-25T08:34:51.852Z,22.07
2018-04-25T08:35:51.875Z,22.02
2018-04-25T08:36:51.947Z,21.53
2018-04-25T08:37:51.916Z,21.62
2018-04-25T08:38:51.937Z,21.38
2018-04-25T08:39:51.953Z,21.12
2018-04-25T08:40:51.981Z,20.92
2018-04-25T08:41:52.000Z,20.97
2018-04-25T08:42:52.070Z,21.21
2018-04-25T08:43:52.044Z,21.56
2018-04-25T08:44:52.258Z,21.72
2018-04-25T08:45:52.080Z,21.86
2018-04-25T08:46:52.106Z,22.03
2018-04-25T08:47:52.131Z,22.37
2018-04-25T08:48:52.198Z,22.30
2018-04-25T08:49:52.195Z,22.05
2018-04-25T08:50:52.191Z,21.38
2018-04-25T08:51:52.212Z,21.17
2018-04-25T08:52:52.231Z,21.64
2018-04-25T08:53:52.255Z,22.20
2018-04-25T08:54:52.328Z,22.62
2018-04-25T08:55:52.378Z,22.46
2018-04-25T08:56:52.433Z,22.54
2018-04-25T08:57:52.340Z,22.46
2018-04-25T08:58:52.361Z,22.27
2018-04-25T08:59:52.386Z,22.46
2018-04-25T09:00:52.458Z,22.80
2018-04-25T09:01:52.457Z,22.91
2018-04-25T09:02:52.446Z,23.02
2018-04-25T09:03:52.473Z,23.33
2018-04-25T09:04:52.492Z,22.92
2018-04-25T09:05:52.546Z,22.97
2018-04-25T09:06:52.592Z,22.91
2018-04-25T09:07:52.562Z,23.01
2018-04-25T09:08:52.588Z,23.05
2018-04-25T09:09:52.609Z,22.97
2018-04-25T09:10:52.624Z,22.70
2018-04-25T09:11:52.649Z,22.61
2018-04-25T09:12:52.719Z,22.70
2018-04-25T09:13:52.696Z,22.82
2018-04-25T09:14:52.713Z,23.09
2018-04-25T09:15:52.735Z,22.82
2018-04-25T09:16:52.762Z,23.02
2018-04-25T09:17:52.781Z,23.36
2018-04-25T09:18:52.856Z,23.63
2018-04-25T09:19:52.825Z,23.58
2018-04-25T09:20:52.844Z,23.84
2018-04-25T09:21:52.871Z,23.76
2018-04-25T09:22:52.894Z,24.00
2018-04-25T09:23:52.918Z,24.12
2018-04-25T09:24:52.985Z,24.47
2018-04-25T09:25:52.963Z,23.95
2018-04-25T09:26:52.984Z,23.88
2018-04-25T09:27:53.008Z,23.73
2018-04-25T09:28:53.032Z,24.15
2018-04-25T09:29:53.053Z,24.06
2018-04-25T09:30:53.125Z,23.58
2018-04-25T09:31:53.092Z,23.94
2018-04-25T09:32:53.120Z,23.87
2018-04-25T09:33:53.144Z,23.75
2018-04-25T09:34:53.165Z,23.88
2018-04-25T09:35:53.191Z,23.78
2018-04-25T09:36:53.269Z,23.61
2018-04-25T09:37:53.278Z,23.70
2018-04-25T09:38:53.257Z,24.37
2018-04-25T09:39:53.303Z,24.43
2018-04-25T09:40:53.306Z,24.84
2018-04-25T09:41:53.330Z,24.65
2018-04-25T09:42:53.403Z,24.50
2018-04-25T09:43:53.373Z,24.43
2018-04-25T09:44:53.398Z,23.50
2018-04-25T09:45:53.467Z,23.51
2018-04-25T09:46:53.442Z,23.76
2018-04-25T09:47:53.463Z,24.46
2018-04-25T09:48:53.535Z,24.65
2018-04-25T09:49:53.526Z,24.95
2018-04-25T09:50:53.540Z,24.98
2018-04-25T09:51:53.626Z,25.52
2018-04-25T09:52:53.577Z,25.76
2018-04-25T09:53:53.624Z,24.99
2018-04-25T09:54:53.676Z,24.95
2018-04-25T09:55:53.712Z,25.13
2018-04-25T09:56:53.677Z,24.53
2018-04-25T09:57:53.802Z,24.96
2018-04-25T09:58:53.726Z,24.52
2018-04-25T09:59:53.746Z,25.23
2018-04-25T10:00:53.817Z,25.67
2018-04-25T10:01:53.788Z,25.61
2018-04-25T10:02:53.821Z,24.96
2018-04-25T10:03:53.919Z,25.09
2018-04-25T10:04:53.863Z,24.65
2018-04-25T10:05:53.888Z,24.99
2018-04-25T10:06:53.968Z,25.06
2018-04-25T10:07:53.931Z,25.21
2018-04-25T10:08:53.959Z,25.45
2018-04-25T10:09:53.985Z,25.50
2018-04-25T10:10:54.069Z,25.77
2018-04-25T10:11:54.036Z,25.61
2018-04-25T10:12:54.107Z,25.64
2018-04-25T10:13:54.075Z,25.91
2018-04-25T10:14:54.098Z,25.87
2018-04-25T10:15:54.124Z,25.97
2018-04-25T10:16:54.144Z,26.48
2018-04-25T10:17:54.180Z,26.65
2018-04-25T10:18:54.244Z,26.88
2018-04-25T10:19:54.223Z,26.87
2018-04-25T10:20:54.247Z,26.45
2018-04-25T10:21:54.294Z,26.82
2018-04-25T10:22:54.293Z,26.80
2018-04-25T10:23:54.346Z,26.85
2018-04-25T10:24:54.462Z,26.44
2018-04-25T10:25:54.369Z,26.18
2018-04-25T10:26:54.386Z,26.35
2018-04-25T10:27:54.417Z,25.87
2018-04-25T10:28:54.437Z,26.26
2018-04-25T10:29:54.466Z,26.36
2018-04-25T10:30:54.592Z,26.28
2018-04-25T10:31:54.580Z,26.39
2018-04-25T10:32:54.533Z,26.10
2018-04-25T10:33:54.561Z,25.72
2018-04-25T10:35:54.610Z,25.10
2018-04-25T10:37:54.659Z,25.51
2018-04-25T10:38:54.756Z,25.88
2018-04-25T10:39:54.704Z,26.20
2018-04-25T10:40:54.736Z,26.33
2018-04-25T10:41:54.757Z,26.10
2018-04-25T10:42:54.850Z,26.12
2018-04-25T10:43:54.807Z,26.44
2018-04-25T10:44:54.831Z,26.84
2018-04-25T10:45:54.853Z,26.66
2018-04-25T10:46:54.882Z,27.12
2018-04-25T10:47:54.909Z,27.18
2018-04-25T10:48:55.012Z,26.70
2018-04-25T10:49:54.954Z,26.35
2018-04-25T10:50:54.981Z,26.01
2018-04-25T10:51:55.005Z,25.94
2018-04-25T10:52:55.031Z,26.23
2018-04-25T10:53:55.053Z,26.40
2018-04-25T10:54:55.205Z,26.37
2018-04-25T10:55:55.104Z,26.50
2018-04-25T10:56:55.131Z,26.60
2018-04-25T10:57:55.156Z,26.73
2018-04-25T10:58:55.179Z,27.13
2018-04-25T10:59:55.205Z,27.37
2018-04-25T11:00:55.300Z,27.14
2018-04-25T11:01:55.253Z,27.46
2018-04-25T11:02:55.290Z,27.77
2018-04-25T11:03:55.299Z,27.75
2018-04-25T11:04:55.327Z,27.55
2018-04-25T11:05:55.352Z,27.31
2018-04-25T11:06:55.485Z,26.54
2018-04-25T11:07:55.408Z,26.89
2018-04-25T11:08:55.432Z,26.85
2018-04-25T11:09:55.453Z,26.73
2018-04-25T11:10:55.476Z,26.43
2018-04-25T11:11:55.506Z,26.57
2018-04-25T11:12:55.655Z,26.17
2018-04-25T11:13:55.573Z,26.32
2018-04-25T11:14:55.585Z,26.28
2018-04-25T11:15:55.600Z,26.69
2018-04-25T11:16:55.636Z,27.60
2018-04-25T11:17:55.659Z,27.65
2018-04-25T11:18:55.738Z,27.31
2018-04-25T11:19:55.707Z,27.09
2018-04-25T11:20:55.731Z,27.82
2018-04-25T11:21:55.753Z,27.78
2018-04-25T11:22:55.780Z,27.70
2018-04-25T11:23:55.828Z,28.18
2018-04-25T11:24:55.963Z,28.15
2018-04-25T11:25:55.856Z,27.69
2018-04-25T11:26:55.883Z,28.12
2018-04-25T11:27:55.915Z,28.19
2018-04-25T11:28:55.930Z,27.66
2018-04-25T11:29:55.957Z,27.09
2018-04-25T11:30:56.059Z,26.62
2018-04-25T11:31:56.081Z,26.51
2018-04-25T11:32:56.028Z,26.35
2018-04-25T11:33:56.061Z,26.66
2018-04-25T11:34:56.085Z,27.22
2018-04-25T11:35:56.107Z,28.02
2018-04-25T11:36:56.233Z,28.52
2018-04-25T11:37:56.164Z,27.55
2018-04-25T11:38:56.186Z,27.44
2018-04-25T11:39:56.215Z,27.94
2018-04-25T11:40:56.239Z,27.47
2018-04-25T11:41:56.259Z,27.51
2018-04-25T11:42:56.365Z,27.85
2018-04-25T11:43:56.310Z,27.97
2018-04-25T11:44:56.343Z,28.19
2018-04-25T11:45:56.365Z,27.85
2018-04-25T11:46:56.391Z,27.59
2018-04-25T11:47:56.412Z,27.44
2018-04-25T11:48:56.494Z,28.07
2018-04-25T11:49:56.463Z,28.40
2018-04-25T11:50:56.495Z,28.51
2018-04-25T11:51:56.516Z,29.04
2018-04-25T11:52:56.544Z,28.30
2018-04-25T11:53:56.569Z,28.09
2018-04-25T11:54:56.646Z,28.41
2018-04-25T11:55:56.622Z,28.43
2018-04-25T11:56:56.649Z,28.56
2018-04-25T11:57:56.670Z,28.55
2018-04-25T11:58:56.695Z,28.55
2018-04-25T11:59:56.722Z,28.78
2018-04-25T12:00:56.753Z,28.85
2018-04-25T12:01:56.784Z,28.61
2018-04-25T12:02:56.883Z,28.59
2018-04-25T12:03:56.823Z,28.22
2018-04-25T12:04:56.945Z,28.14
2018-04-25T12:05:56.874Z,28.39
2018-04-25T12:06:56.958Z,27.78
2018-04-25T12:07:57.016Z,28.55
2018-04-25T12:08:56.956Z,28.76
2018-04-25T12:09:56.989Z,27.97
2018-04-25T12:10:57.005Z,27.97
2018-04-25T12:11:57.038Z,28.15
2018-04-25T12:12:57.114Z,27.78
2018-04-25T12:13:57.085Z,28.37
2018-04-25T12:14:57.115Z,27.78
2018-04-25T12:15:57.133Z,27.62
2018-04-25T12:16:57.163Z,27.44
2018-04-25T12:17:57.187Z,27.55
2018-04-25T12:18:57.266Z,27.46
2018-04-25T12:19:57.243Z,27.49
2018-04-25T12:20:57.263Z,27.75
2018-04-25T12:21:57.293Z,27.87
2018-04-25T12:22:57.319Z,27.85
2018-04-25T12:23:57.348Z,27.60
2018-04-25T12:24:57.418Z,27.57
2018-04-25T12:25:57.394Z,27.96
2018-04-25T12:26:57.420Z,28.21
2018-04-25T12:27:57.451Z,27.99
2018-04-25T12:28:57.470Z,27.99
2018-04-25T12:29:57.502Z,28.31
2018-04-25T12:30:57.572Z,28.21
2018-04-25T12:31:57.551Z,28.51
2018-04-25T12:32:57.579Z,28.62
2018-04-25T12:33:57.601Z,28.40
2018-04-25T12:34:57.627Z,28.37
2018-04-25T12:35:57.656Z,28.03
2018-04-25T12:36:57.730Z,28.00
2018-04-25T12:37:57.703Z,27.87
2018-04-25T12:38:57.736Z,28.58
2018-04-25T12:39:57.759Z,28.59
2018-04-25T12:40:57.781Z,28.76
2018-04-25T12:41:57.809Z,28.77
2018-04-25T12:42:57.831Z,28.36
2018-04-25T12:43:57.864Z,28.59
2018-04-25T12:44:57.890Z,29.12
2018-04-25T12:45:57.918Z,28.76
2018-04-25T12:46:57.938Z,28.11
2018-04-25T12:47:57.967Z,28.14
2018-04-25T12:48:58.049Z,27.65
2018-04-25T12:49:58.015Z,28.02
2018-04-25T12:50:58.045Z,27.66
2018-04-25T12:51:58.066Z,27.62
2018-04-25T12:52:58.092Z,27.21
2018-04-25T12:53:58.206Z,27.49
2018-04-25T12:54:58.179Z,27.54